Time;durP1;ratioP1;P1;durP2;ratioP2;P2;SDS_P1;SDS_P2;PMS_P1;PMS_P2;Temp;Humidity;BMP_temperature;BMP_pressure;BME280_temperature;BME280_humidity;BME280_pressure;Samples;Min_cycle;Max_cycle;Signal;HPM_P1;HPM_P2
2021/04/29 00:01:17;;;;;;;8.70;8.00;;;;;;;13.32;52.58;99111.63;5014952;28;20202;-77
2021/04/29 00:03:43;;;;;;;9.73;8.73;;;;;;;13.07;54.41;99112.81;5013565;28;20762;-77
2021/04/29 00:06:09;;;;;;;9.80;8.90;;;;;;;12.80;53.44;99119.44;5014707;28;20222;-77
2021/04/29 00:08:36;;;;;;;8.50;7.80;;;;;;;12.79;53.56;99104.66;5014437;28;20676;-77
2021/04/29 00:11:04;;;;;;;8.67;7.77;;;;;;;12.78;53.74;99111.66;5014589;28;20202;-77
2021/04/29 00:13:30;;;;;;;11.47;8.30;;;;;;;12.83;53.39;99093.09;5022586;28;20205;-77
2021/04/29 00:15:56;;;;;;;9.53;8.70;;;;;;;12.75;53.99;99109.19;5014547;28;20598;-78
2021/04/29 00:18:23;;;;;;;9.50;8.70;;;;;;;12.82;54.16;99099.25;5022526;28;20629;-77
2021/04/29 00:20:54;;;;;;;10.00;9.07;;;;;;;12.83;55.88;99099.19;5022862;28;20267;-78
2021/04/29 00:23:20;;;;;;;9.60;8.80;;;;;;;12.88;56.52;99101.56;5020780;28;20203;-78
2021/04/29 00:25:46;;;;;;;9.73;8.87;;;;;;;12.89;57.91;99100.66;5025591;28;20229;-77
2021/04/29 00:28:12;;;;;;;9.20;8.37;;;;;;;12.88;59.25;99094.59;5038331;28;20794;-78
2021/04/29 00:30:38;;;;;;;9.47;8.67;;;;;;;12.88;60.67;99097.19;5032714;28;20209;-77
2021/04/29 00:33:05;;;;;;;10.00;9.00;;;;;;;12.89;61.35;99095.41;5026204;28;20205;-78
2021/04/29 00:35:31;;;;;;;10.30;9.50;;;;;;;12.82;62.16;99094.03;5040074;28;20203;-78
2021/04/29 00:37:57;;;;;;;9.50;8.80;;;;;;;12.77;63.73;99101.28;5029202;28;20207;-78
2021/04/29 00:40:22;;;;;;;9.80;8.87;;;;;;;12.75;63.92;99092.66;5028528;28;20699;-78
2021/04/29 00:42:49;;;;;;;9.87;9.27;;;;;;;12.74;64.49;99091.78;5015384;28;20204;-78
2021/04/29 00:45:14;;;;;;;10.80;10.00;;;;;;;12.73;65.11;99103.19;5023410;28;20196;-78
2021/04/29 00:47:41;;;;;;;11.17;10.27;;;;;;;12.65;66.10;99094.88;5039547;28;20200;-78
2021/04/29 00:50:10;;;;;;;10.03;9.43;;;;;;;12.68;65.95;99097.31;5027828;28;20533;-78
2021/04/29 00:52:36;;;;;;;10.50;9.63;;;;;;;12.65;67.32;99107.97;5025479;28;20207;-78
2021/04/29 00:55:03;;;;;;;10.40;9.70;;;;;;;12.48;68.09;99100.91;5033764;28;20205;-78
2021/04/29 00:57:29;;;;;;;10.13;9.40;;;;;;;12.42;68.19;99099.44;5016999;28;20230;-78
2021/04/29 00:59:56;;;;;;;11.37;10.40;;;;;;;12.30;69.05;99098.25;5026943;28;20631;-78
2021/04/29 01:02:24;;;;;;;9.20;8.50;;;;;;;12.31;69.24;99102.56;5028507;28;20735;-78
2021/04/29 01:04:56;;;;;;;10.73;9.90;;;;;;;12.36;70.62;99096.28;5019687;28;20205;-79
2021/04/29 01:07:25;;;;;;;9.50;8.70;;;;;;;12.37;69.41;99104.06;5025318;28;20219;-78
2021/04/29 01:09:55;;;;;;;10.23;9.53;;;;;;;12.32;70.86;99096.41;5025874;28;20229;-79
2021/04/29 01:12:27;;;;;;;10.63;9.87;;;;;;;12.36;71.93;99099.72;5030214;28;20667;-78
2021/04/29 01:14:58;;;;;;;10.17;9.03;;;;;;;12.36;70.75;99097.13;5027021;28;20199;-79
2021/04/29 01:17:24;;;;;;;9.97;9.17;;;;;;;12.30;71.40;99100.03;5040342;28;20289;-79
2021/04/29 01:19:55;;;;;;;9.80;9.10;;;;;;;12.23;73.04;99096.88;5037052;28;20222;-79
2021/04/29 01:22:21;;;;;;;10.77;9.97;;;;;;;12.23;72.54;99096.88;5037337;28;20246;-79
2021/04/29 01:24:53;;;;;;;10.27;9.47;;;;;;;12.17;73.59;99096.28;5027582;28;20206;-79
2021/04/29 01:27:21;;;;;;;10.10;9.30;;;;;;;12.18;73.74;99085.75;5032778;28;20232;-79
2021/04/29 01:29:47;;;;;;;10.77;9.93;;;;;;;12.13;74.37;99085.16;5025829;28;20452;-79
2021/04/29 01:32:14;;;;;;;11.13;10.33;;;;;;;12.14;74.37;99083.38;5026027;28;20258;-79
2021/04/29 01:34:40;;;;;;;9.60;8.70;;;;;;;12.12;74.40;99075.59;5025743;28;20214;-78
2021/04/29 01:37:07;;;;;;;10.00;9.23;;;;;;;12.07;73.92;99072.31;5027590;28;20585;-79
2021/04/29 01:39:34;;;;;;;10.40;9.60;;;;;;;11.99;73.55;99072.72;5023538;28;20646;-79
2021/04/29 01:42:00;;;;;;;11.53;10.50;;;;;;;11.99;74.95;99077.06;5026734;28;20578;-78
2021/04/29 01:44:28;;;;;;;11.10;10.13;;;;;;;12.00;75.15;99073.56;5028424;28;20573;-78
2021/04/29 01:46:57;;;;;;;11.63;10.57;;;;;;;11.99;75.47;99070.09;5041985;28;20239;-78
2021/04/29 01:49:23;;;;;;;11.00;10.00;;;;;;;11.98;75.87;99067.56;5032339;28;20203;-78
2021/04/29 01:51:50;;;;;;;12.43;10.60;;;;;;;11.94;76.84;99066.00;5033445;28;20230;-78
2021/04/29 01:54:17;;;;;;;10.63;9.63;;;;;;;11.86;76.58;99064.53;5026186;28;20578;-79
2021/04/29 01:56:44;;;;;;;12.07;10.93;;;;;;;11.91;76.90;99067.84;5029872;28;20720;-79
2021/04/29 01:59:10;;;;;;;10.80;9.97;;;;;;;11.93;75.93;99065.13;5032734;28;20235;-79
2021/04/29 02:01:38;;;;;;;17.17;10.77;;;;;;;11.86;76.37;99071.56;5016724;28;20694;-78
2021/04/29 02:04:05;;;;;;;11.03;10.13;;;;;;;11.87;76.26;99068.00;5025594;28;20205;-79
2021/04/29 02:06:31;;;;;;;12.30;11.30;;;;;;;11.83;76.29;99069.94;5023439;28;20221;-78
2021/04/29 02:08:57;;;;;;;13.57;11.93;;;;;;;11.83;76.61;99071.69;5017402;28;20348;-78
2021/04/29 02:11:23;;;;;;;12.33;11.37;;;;;;;11.83;76.65;99058.59;5032320;28;20201;-79
2021/04/29 02:13:52;;;;;;;12.07;11.27;;;;;;;11.87;76.20;99058.41;5024022;28;20737;-79
2021/04/29 02:16:22;;;;;;;13.17;12.03;;;;;;;11.88;75.89;99054.88;5025359;28;20227;-79
2021/04/29 02:18:50;;;;;;;13.20;12.10;;;;;;;11.85;76.05;99054.16;5019317;28;20222;-79
2021/04/29 02:21:17;;;;;;;14.13;12.90;;;;;;;11.82;77.15;99055.16;5024979;28;20210;-79
2021/04/29 02:23:46;;;;;;;12.63;11.67;;;;;;;11.79;77.34;99059.66;5016992;28;20287;-79
2021/04/29 02:26:13;;;;;;;13.80;12.80;;;;;;;11.75;77.82;99061.56;5025195;28;20310;-79
2021/04/29 02:28:40;;;;;;;13.40;12.37;;;;;;;11.74;77.18;99054.66;5017463;28;20230;-79
2021/04/29 02:31:06;;;;;;;13.87;12.77;;;;;;;11.69;77.72;99064.47;5017300;28;20210;-79
2021/04/29 02:33:33;;;;;;;15.20;13.90;;;;;;;11.72;77.53;99056.50;5024670;28;20203;-79
2021/04/29 02:36:01;;;;;;;14.90;13.67;;;;;;;11.70;78.36;99059.19;5016815;28;20225;-79
2021/04/29 02:38:28;;;;;;;14.50;13.40;;;;;;;11.71;77.96;99054.78;5027473;28;20213;-79
2021/04/29 02:40:54;;;;;;;14.17;13.03;;;;;;;11.66;78.14;99049.78;5036337;28;20214;-79
2021/04/29 02:43:20;;;;;;;15.60;13.17;;;;;;;11.61;78.66;99056.97;5018154;28;20204;-78
2021/04/29 02:45:46;;;;;;;12.53;11.57;;;;;;;11.58;78.36;99056.28;5030643;28;20227;-79
2021/04/29 02:48:12;;;;;;;12.80;11.70;;;;;;;11.59;78.14;99053.59;5027491;28;20200;-78
2021/04/29 02:50:43;;;;;;;12.30;11.43;;;;;;;11.60;77.83;99059.69;5020708;28;20576;-79
2021/04/29 02:53:11;;;;;;;13.20;12.20;;;;;;;11.58;77.92;99056.28;5027543;28;20210;-78
2021/04/29 02:55:37;;;;;;;13.47;12.50;;;;;;;11.58;79.11;99054.50;5018225;28;20223;-78
2021/04/29 02:58:06;;;;;;;12.50;11.60;;;;;;;11.68;77.44;99050.56;5028747;28;20206;-79
2021/04/29 03:00:33;;;;;;;12.67;11.67;;;;;;;11.66;77.91;99046.31;5025958;28;20223;-79
2021/04/29 03:02:59;;;;;;;13.10;12.20;;;;;;;11.69;77.01;99043.56;5027536;28;20206;-79
2021/04/29 03:05:24;;;;;;;13.30;12.33;;;;;;;11.67;76.64;99051.50;5027603;28;20212;-78
2021/04/29 03:07:50;;;;;;;13.00;12.10;;;;;;;11.75;76.82;99042.44;5036105;28;20208;-79
2021/04/29 03:10:17;;;;;;;14.83;13.80;;;;;;;11.81;76.82;99042.16;5020186;28;20784;-78
2021/04/29 03:12:43;;;;;;;12.50;11.60;;;;;;;11.84;76.20;99052.47;5016414;28;20654;-79
2021/04/29 03:15:10;;;;;;;14.33;13.23;;;;;;;11.84;76.94;99052.47;5024458;28;20234;-78
2021/04/29 03:17:36;;;;;;;12.90;12.00;;;;;;;11.68;78.45;99045.31;5032039;28;20705;-79
2021/04/29 03:20:04;;;;;;;11.80;10.97;;;;;;;11.65;77.36;99050.69;5022617;28;20221;-79
2021/04/29 03:22:30;;;;;;;13.13;12.03;;;;;;;11.67;76.69;99045.41;5026228;28;20203;-79
2021/04/29 03:24:56;;;;;;;13.13;12.23;;;;;;;11.67;76.50;99051.50;5022581;28;20231;-79
2021/04/29 03:27:24;;;;;;;13.33;12.23;;;;;;;11.70;76.73;99045.28;5024949;28;20223;-79
2021/04/29 03:29:50;;;;;;;15.33;14.23;;;;;;;11.72;77.26;99048.66;5024611;28;20197;-78
2021/04/29 03:32:16;;;;;;;15.70;14.50;;;;;;;11.76;77.26;99038.91;5032757;28;20221;-79
2021/04/29 03:34:43;;;;;;;16.23;15.03;;;;;;;11.76;77.20;99041.53;5032527;28;20420;-79
2021/04/29 03:37:09;;;;;;;16.83;15.63;;;;;;;11.75;76.94;99048.50;5025698;28;20232;-78
2021/04/29 03:39:35;;;;;;;16.90;15.80;;;;;;;11.75;77.46;99047.66;5017616;28;20235;-78
2021/04/29 03:42:01;;;;;;;18.40;17.00;;;;;;;11.69;78.49;99039.19;5023390;28;20200;-76
2021/04/29 03:44:27;;;;;;;17.77;16.37;;;;;;;11.74;77.93;99028.53;5019566;28;20284;-79
2021/04/29 03:46:53;;;;;;;16.37;15.07;;;;;;;11.74;77.78;99041.59;5028303;28;20333;-78
2021/04/29 03:49:19;;;;;;;14.97;13.80;;;;;;;11.53;79.40;99033.81;5032742;28;20675;-78
2021/04/29 03:51:45;;;;;;;14.93;13.77;;;;;;;11.43;79.84;99035.13;5033414;28;20649;-79
2021/04/29 03:54:11;;;;;;;15.77;14.77;;;;;;;11.50;79.29;99035.72;5023421;28;20648;-79
2021/04/29 03:56:37;;;;;;;16.57;15.33;;;;;;;11.56;78.33;99039.81;5036391;28;20231;-78
2021/04/29 03:59:03;;;;;;;16.73;15.20;;;;;;;11.52;77.58;99039.13;5024805;28;20223;-79
2021/04/29 04:01:30;;;;;;;16.80;15.60;;;;;;;11.53;77.70;99043.41;5026307;28;20246;-79
2021/04/29 04:03:56;;;;;;;17.13;15.93;;;;;;;11.59;77.48;99040.50;5024963;28;20212;-78
2021/04/29 04:06:23;;;;;;;17.83;16.63;;;;;;;11.61;77.82;99038.69;5017688;28;20575;-78
2021/04/29 04:08:48;;;;;;;17.90;16.60;;;;;;;11.61;77.53;99036.06;5016813;28;20572;-78
2021/04/29 04:11:14;;;;;;;16.67;15.47;;;;;;;11.64;76.95;99041.16;5026230;28;20201;-79
2021/04/29 04:13:40;;;;;;;18.20;16.90;;;;;;;11.75;77.10;99038.03;5028649;28;20215;-78
2021/04/29 04:16:07;;;;;;;15.97;14.87;;;;;;;11.65;78.08;99036.78;5034086;28;20224;-79
2021/04/29 04:18:33;;;;;;;17.53;16.13;;;;;;;11.69;77.46;99041.81;5042329;28;21014;-79
2021/04/29 04:20:59;;;;;;;18.77;17.23;;;;;;;11.68;77.67;99039.25;5028599;28;20202;-78
2021/04/29 04:23:25;;;;;;;17.30;16.10;;;;;;;11.65;78.29;99036.78;5018636;28;20206;-79
2021/04/29 04:25:52;;;;;;;17.00;15.90;;;;;;;11.50;79.23;99033.94;5020081;28;20245;-78
2021/04/29 04:28:18;;;;;;;17.93;16.63;;;;;;;11.48;79.05;99034.94;5027304;28;20204;-78
2021/04/29 04:30:43;;;;;;;16.73;15.53;;;;;;;11.37;79.25;99038.03;5028033;28;20249;-78
2021/04/29 04:33:09;;;;;;;17.73;16.50;;;;;;;11.40;79.71;99032.69;5034792;28;20561;-78
2021/04/29 04:35:36;;;;;;;16.23;15.10;;;;;;;11.42;79.74;99032.63;5018756;28;20266;-78
2021/04/29 04:38:02;;;;;;;17.07;15.97;;;;;;;11.30;79.60;99036.63;5038339;28;20603;-78
2021/04/29 04:40:28;;;;;;;18.07;16.87;;;;;;;11.15;80.60;99030.28;5030328;28;20215;-78
2021/04/29 04:42:54;;;;;;;16.90;15.67;;;;;;;11.33;79.17;99029.47;5020759;28;20203;-78
2021/04/29 04:45:20;;;;;;;17.17;15.87;;;;;;;11.31;79.92;99033.06;5019063;28;20253;-78
2021/04/29 04:47:46;;;;;;;18.27;16.90;;;;;;;11.35;79.86;99034.63;5044720;28;20206;-79
2021/04/29 04:50:12;;;;;;;17.47;16.00;;;;;;;11.35;80.09;99031.19;5029696;28;20593;-78
2021/04/29 04:52:39;;;;;;;18.03;16.67;;;;;;;11.30;80.33;99031.41;5030757;28;20215;-78
2021/04/29 04:55:06;;;;;;;16.03;14.83;;;;;;;11.35;80.14;99039.84;5026980;28;20273;-78
2021/04/29 04:57:32;;;;;;;16.33;15.10;;;;;;;11.34;80.35;99038.19;5047283;22;20700;-76
2021/04/29 04:59:58;;;;;;;16.00;14.90;;;;;;;11.29;80.62;99043.59;5031532;28;20249;-77
2021/04/29 05:02:24;;;;;;;16.77;15.40;;;;;;;11.22;80.94;99041.31;5032655;28;20285;-77
2021/04/29 05:04:50;;;;;;;15.23;14.20;;;;;;;11.32;80.38;99045.25;5032094;28;20194;-77
2021/04/29 05:07:16;;;;;;;18.07;16.77;;;;;;;11.29;80.31;99051.44;5029781;28;20224;-77
2021/04/29 05:09:43;;;;;;;19.57;18.23;;;;;;;11.29;79.44;99047.97;5021757;28;20201;-76
2021/04/29 05:12:10;;;;;;;20.93;19.37;;;;;;;11.36;79.40;99046.78;5030885;28;20221;-77
2021/04/29 05:14:35;;;;;;;18.83;17.33;;;;;;;11.41;79.66;99042.19;5032528;28;20198;-76
2021/04/29 05:17:01;;;;;;;17.87;16.57;;;;;;;11.38;79.68;99034.50;5032992;28;20223;-76
2021/04/29 05:19:27;;;;;;;19.90;18.50;;;;;;;11.37;79.04;99045.03;5029196;28;20227;-76
2021/04/29 05:21:53;;;;;;;22.23;20.73;;;;;;;11.39;79.94;99041.41;5028623;28;20581;-77
2021/04/29 05:24:19;;;;;;;20.80;19.00;;;;;;;11.40;79.64;99047.50;5023139;28;20236;-76
2021/04/29 05:26:46;;;;;;;21.13;19.37;;;;;;;11.37;80.19;99053.69;5031921;28;20257;-77
2021/04/29 05:29:12;;;;;;;21.10;19.60;;;;;;;11.38;79.67;99052.78;5032848;28;20224;-76
2021/04/29 05:31:38;;;;;;;24.17;22.33;;;;;;;11.40;79.86;99048.34;5024555;28;20341;-77
2021/04/29 05:34:04;;;;;;;26.73;24.67;;;;;;;11.41;79.60;99054.41;5031989;28;20202;-78
2021/04/29 05:36:30;;;;;;;30.40;27.63;;;;;;;11.39;80.22;99051.88;5024045;28;20258;-77
2021/04/29 05:38:56;;;;;;;29.83;27.17;;;;;;;11.39;80.09;99051.03;5032760;28;20205;-77
2021/04/29 05:41:22;;;;;;;29.33;26.63;;;;;;;11.41;79.25;99051.81;5032861;28;20225;-76
2021/04/29 05:43:49;;;;;;;28.73;26.03;;;;;;;11.41;79.78;99046.59;5032094;28;20202;-77
2021/04/29 05:46:15;;;;;;;27.40;25.03;;;;;;;11.36;79.34;99049.41;5035146;28;20205;-77
2021/04/29 05:48:41;;;;;;;27.83;25.50;;;;;;;11.36;79.78;99044.19;5036075;28;20199;-77
2021/04/29 05:51:07;;;;;;;26.90;24.37;;;;;;;11.41;79.04;99047.41;5024268;28;20221;-78
2021/04/29 05:53:33;;;;;;;26.20;23.97;;;;;;;11.38;79.48;99042.34;5027312;28;20210;-78
2021/04/29 05:55:59;;;;;;;29.20;26.43;;;;;;;11.41;79.37;99041.34;5026264;28;20204;-77
2021/04/29 05:58:25;;;;;;;27.80;25.03;;;;;;;11.41;79.78;99041.34;5025766;28;20233;-77
2021/04/29 06:00:51;;;;;;;26.93;24.77;;;;;;;11.37;79.38;99045.03;5023005;28;20238;-76
2021/04/29 06:03:17;;;;;;;29.70;26.73;;;;;;;11.37;79.31;99048.47;5025922;28;20254;-76
2021/04/29 06:05:43;;;;;;;27.60;25.17;;;;;;;11.42;78.62;99053.50;5024082;28;20204;-77
2021/04/29 06:08:09;;;;;;;26.30;24.10;;;;;;;11.36;78.91;99045.94;5024510;28;20219;-77
2021/04/29 06:10:36;;;;;;;25.97;23.67;;;;;;;11.32;78.95;99047.84;5024086;28;20659;-75
2021/04/29 06:13:02;;;;;;;26.77;24.37;;;;;;;11.20;78.81;99049.25;5020900;28;20198;-76
2021/04/29 06:15:28;;;;;;;25.03;23.00;;;;;;;11.17;78.73;99056.34;5021844;28;20245;-76
2021/04/29 06:17:54;;;;;;;23.87;21.90;;;;;;;11.17;78.42;99054.59;5027753;28;20250;-76
2021/04/29 06:20:21;;;;;;;23.70;21.80;;;;;;;11.20;78.65;99054.47;5026199;28;20251;-75
2021/04/29 06:22:47;;;;;;;24.07;22.00;;;;;;;11.18;77.86;99050.19;5021710;28;20732;-75
2021/04/29 06:25:13;;;;;;;25.40;22.97;;;;;;;11.17;77.81;99051.13;5022774;28;20681;-76
2021/04/29 06:27:40;;;;;;;25.20;23.07;;;;;;;11.12;78.11;99054.78;5023720;28;20246;-76
2021/04/29 06:30:09;;;;;;;26.87;24.43;;;;;;;11.06;78.59;99060.28;5024096;28;20600;-76
2021/04/29 06:32:35;;;;;;;24.70;22.70;;;;;;;11.04;78.40;99067.34;5024324;28;20229;-75
2021/04/29 06:35:02;;;;;;;27.20;24.60;;;;;;;11.01;79.20;99061.41;5023513;28;20201;-75
2021/04/29 06:37:28;;;;;;;26.83;24.53;;;;;;;10.93;79.33;99057.34;5022973;28;20223;-75
2021/04/29 06:39:53;;;;;;;25.67;23.67;;;;;;;10.93;79.79;99059.94;5023268;28;20260;-76
2021/04/29 06:42:19;;;;;;;27.83;25.33;;;;;;;10.96;79.70;99052.91;5022551;28;20286;-76
2021/04/29 06:44:45;;;;;;;25.70;23.20;;;;;;;10.92;79.78;99053.03;5024764;28;20206;-75
2021/04/29 06:47:11;;;;;;;26.07;23.77;;;;;;;10.94;79.24;99052.94;5027215;28;20730;-76
2021/04/29 06:49:37;;;;;;;23.87;21.80;;;;;;;10.89;78.58;99055.78;5024826;28;20198;-76
2021/04/29 06:52:04;;;;;;;23.07;21.27;;;;;;;10.92;78.08;99060.88;5021273;28;20641;-76
2021/04/29 06:54:30;;;;;;;23.87;21.97;;;;;;;10.85;78.36;99061.19;5023045;28;20255;-79
2021/04/29 06:56:58;;;;;;;23.30;21.40;;;;;;;10.83;78.09;99057.81;5020042;28;20235;-76
2021/04/29 06:59:24;;;;;;;23.43;21.50;;;;;;;10.81;78.20;99050.03;5023002;28;20716;-76
2021/04/29 07:01:50;;;;;;;24.67;22.70;;;;;;;10.83;78.76;99057.81;5022100;28;20200;-76
2021/04/29 07:04:16;;;;;;;24.73;22.90;;;;;;;10.73;79.47;99057.34;5022740;28;20206;-76
2021/04/29 07:06:42;;;;;;;24.73;22.73;;;;;;;10.72;79.94;99063.47;5022977;28;20314;-77
2021/04/29 07:09:09;;;;;;;25.70;23.70;;;;;;;10.70;79.97;99060.94;5023661;28;20248;-76
2021/04/29 07:11:35;;;;;;;23.77;22.07;;;;;;;10.69;79.87;99066.22;5024301;28;20212;-75
2021/04/29 07:14:01;;;;;;;24.27;22.43;;;;;;;10.68;79.51;99067.09;5032403;28;20335;-76
2021/04/29 07:16:27;;;;;;;23.80;21.93;;;;;;;10.66;78.96;99063.72;5051964;28;20209;-76
2021/04/29 07:18:53;;;;;;;24.33;22.57;;;;;;;10.69;78.89;99067.06;5045903;28;20225;-77
2021/04/29 07:21:19;;;;;;;23.27;21.53;;;;;;;10.64;78.94;99060.31;5032825;28;20207;-76
2021/04/29 07:23:47;;;;;;;26.27;24.03;;;;;;;10.48;79.61;99071.38;5039895;28;20198;-75
2021/04/29 07:26:13;;;;;;;27.30;25.17;;;;;;;10.04;81.36;99079.19;5041167;28;20800;-75
2021/04/29 07:28:39;;;;;;;27.40;25.20;;;;;;;10.09;81.29;99074.66;5034160;28;20226;-77
2021/04/29 07:31:05;;;;;;;25.93;23.73;;;;;;;10.24;81.65;99082.78;5024879;28;20190;-77
2021/04/29 07:33:31;;;;;;;27.03;24.63;;;;;;;10.31;81.00;99068.63;5025541;28;20238;-77
2021/04/29 07:35:57;;;;;;;26.63;24.43;;;;;;;10.31;81.09;99073.84;5026126;28;20202;-76
2021/04/29 07:38:23;;;;;;;23.00;21.10;;;;;;;10.46;80.51;99078.41;5018714;28;20219;-75
2021/04/29 07:40:48;;;;;;;24.97;22.87;;;;;;;10.62;80.46;99075.19;5021510;28;20275;-75
2021/04/29 07:43:16;;;;;;;24.90;23.00;;;;;;;10.75;79.80;99075.56;5030123;28;20282;-73
2021/04/29 07:45:42;;;;;;;25.50;23.60;;;;;;;10.85;79.63;99063.81;5023905;28;20681;-73
2021/04/29 07:48:08;;;;;;;25.23;22.87;;;;;;;10.94;79.16;99071.22;5033093;28;20231;-74
2021/04/29 07:50:34;;;;;;;26.00;23.47;;;;;;;11.00;78.51;99072.72;5024620;28;20652;-75
2021/04/29 07:53:00;;;;;;;25.63;23.13;;;;;;;11.07;78.79;99072.41;5025406;28;20245;-75
2021/04/29 07:55:27;;;;;;;27.03;24.83;;;;;;;11.11;79.21;99076.59;5024767;28;20210;-76
2021/04/29 07:57:53;;;;;;;26.00;23.90;;;;;;;11.15;79.37;99079.91;5021774;28;20282;-76
2021/04/29 08:00:20;;;;;;;24.23;22.53;;;;;;;11.11;78.18;99086.19;5023105;28;20244;-76
2021/04/29 08:02:46;;;;;;;25.63;23.57;;;;;;;11.10;78.43;99079.28;5022513;28;20242;-75
2021/04/29 08:05:12;;;;;;;25.50;23.50;;;;;;;11.09;78.11;99083.63;5021395;28;20233;-75
2021/04/29 08:07:39;;;;;;;24.40;22.50;;;;;;;11.15;77.27;99081.69;5021660;28;20659;-76
2021/04/29 08:10:09;;;;;;;27.00;24.67;;;;;;;11.13;78.66;99084.38;5022400;28;20271;-76
2021/04/29 08:12:35;;;;;;;25.30;23.00;;;;;;;11.13;78.93;99081.75;5023428;28;20210;-74
2021/04/29 08:15:01;;;;;;;24.50;22.80;;;;;;;11.10;78.02;99082.75;5024475;28;20237;-76
2021/04/29 08:17:28;;;;;;;24.47;22.47;;;;;;;11.15;77.71;99081.69;5030071;28;20696;-77
2021/04/29 08:19:55;;;;;;;24.87;22.97;;;;;;;11.07;78.47;99079.41;5025457;28;20304;-77
2021/04/29 08:22:22;;;;;;;26.37;24.23;;;;;;;11.12;78.51;99080.91;5021753;28;20200;-76
2021/04/29 08:24:48;;;;;;;25.43;23.23;;;;;;;11.21;78.66;99076.19;5021184;28;20736;-76
2021/04/29 08:27:14;;;;;;;26.63;24.27;;;;;;;11.20;79.02;99075.34;5023340;28;20256;-77
2021/04/29 08:29:40;;;;;;;26.83;24.40;;;;;;;11.26;78.62;99069.03;5021752;28;20207;-77
2021/04/29 08:32:06;;;;;;;27.00;24.47;;;;;;;11.37;78.14;99068.53;5022071;28;20616;-77
2021/04/29 08:34:33;;;;;;;28.20;25.83;;;;;;;11.39;78.85;99067.53;5022903;28;20198;-77
2021/04/29 08:36:59;;;;;;;28.27;25.63;;;;;;;11.46;78.91;99074.19;5021787;28;20701;-77
2021/04/29 08:39:25;;;;;;;28.17;25.67;;;;;;;11.48;78.20;99074.13;5021945;28;20249;-76
2021/04/29 08:41:52;;;;;;;29.17;26.70;;;;;;;11.56;77.89;99077.25;5023851;28;20704;-77
2021/04/29 08:44:18;;;;;;;27.30;25.00;;;;;;;11.68;78.75;99076.69;5021894;28;20262;-77
2021/04/29 08:46:44;;;;;;;27.87;25.57;;;;;;;11.90;78.21;99078.38;5027825;28;20236;-76
2021/04/29 08:49:10;;;;;;;28.67;26.17;;;;;;;12.02;77.63;99077.78;5029823;28;20201;-75
2021/04/29 08:51:38;;;;;;;27.90;25.63;;;;;;;12.26;76.61;99088.00;5021501;28;20693;-77
2021/04/29 08:54:04;;;;;;;26.80;24.63;;;;;;;12.35;75.88;99092.81;5022128;28;20221;-76
2021/04/29 08:56:30;;;;;;;28.60;26.20;;;;;;;12.46;76.38;99092.28;5005188;28;507276;-77
2021/04/29 08:58:57;;;;;;;29.17;26.87;;;;;;;12.46;76.06;99098.34;5021709;28;20204;-76
2021/04/29 09:01:24;;;;;;;30.97;28.17;;;;;;;12.50;77.07;99101.69;5022569;28;20194;-77
2021/04/29 09:03:50;;;;;;;31.00;28.00;;;;;;;12.48;76.33;99109.59;5023637;28;20211;-76
2021/04/29 09:06:16;;;;;;;32.37;29.27;;;;;;;12.48;76.78;99103.53;5021417;28;20700;-77
2021/04/29 09:08:45;;;;;;;33.90;30.50;;;;;;;12.45;76.88;99091.44;5022808;28;20202;-76
2021/04/29 09:11:13;;;;;;;32.30;29.13;;;;;;;12.46;77.12;99106.22;5023712;28;20248;-76
2021/04/29 09:13:40;;;;;;;32.43;29.50;;;;;;;12.51;77.37;99101.63;5021348;28;20200;-76
2021/04/29 09:16:09;;;;;;;33.40;30.47;;;;;;;12.54;76.57;99099.78;5025895;28;20258;-76
2021/04/29 09:18:36;;;;;;;33.20;30.20;;;;;;;12.63;77.47;99094.09;5027612;28;20754;-76
2021/04/29 09:21:07;;;;;;;32.07;29.37;;;;;;;12.73;76.99;99094.50;5025748;28;20226;-76
2021/04/29 09:23:35;;;;;;;30.83;27.67;;;;;;;12.85;77.03;99088.66;5025600;28;20206;-77
2021/04/29 09:26:04;;;;;;;31.93;29.13;;;;;;;12.99;76.05;99101.03;5027858;28;20208;-76
2021/04/29 09:28:49;;;;;;;33.00;29.87;;;;;;;13.12;75.94;99089.00;5023635;28;20257;-76
2021/04/29 09:31:18;;;;;;;32.03;29.17;;;;;;;13.22;75.71;99092.88;5024419;28;20227;-76
2021/04/29 09:33:45;;;;;;;36.00;33.07;;;;;;;13.45;76.36;99090.84;5025980;28;20570;-74
2021/04/29 09:36:21;;;;;;;32.07;29.30;;;;;;;13.61;76.73;99088.25;5028604;28;20691;-76
2021/04/29 09:38:52;;;;;;;34.45;31.75;;;;;;;13.82;75.88;99084.50;5023212;28;20445;-77
2021/04/29 09:41:22;;;;;;;29.23;26.90;;;;;;;13.97;74.60;99088.03;5022562;28;20232;-77
2021/04/29 09:43:51;;;;;;;26.80;24.77;;;;;;;13.90;74.54;99091.94;5025118;28;20206;-77
2021/04/29 09:46:17;;;;;;;25.80;23.83;;;;;;;13.50;75.48;99076.56;5026289;28;20210;-77
2021/04/29 09:48:43;;;;;;;24.33;22.53;;;;;;;13.64;75.65;99085.50;5036672;28;20240;-77
2021/04/29 09:51:09;;;;;;;23.27;21.53;;;;;;;13.11;74.36;99084.69;5031544;28;20239;-77
2021/04/29 09:53:40;;;;;;;25.23;23.55;;;;;;;13.25;75.37;99084.81;5022317;28;20442;-77
2021/04/29 09:56:10;;;;;;;24.03;22.23;;;;;;;13.55;75.67;99076.31;5025419;28;20202;-77
2021/04/29 09:58:37;;;;;;;27.03;25.27;;;;;;;13.75;75.51;99075.25;5028836;28;20451;-76
2021/04/29 10:01:06;;;;;;;23.00;21.50;;;;;;;13.24;74.31;99083.16;5025730;28;20495;-76
2021/04/29 10:03:32;;;;;;;23.27;21.63;;;;;;;13.33;75.06;99079.22;5028634;28;20206;-77
2021/04/29 10:05:59;;;;;;;22.77;21.20;;;;;;;13.37;75.57;99075.50;5032397;28;20205;-78
2021/04/29 10:08:27;;;;;;;22.73;21.13;;;;;;;13.29;76.93;99070.66;5025258;28;20220;-77
2021/04/29 10:10:55;;;;;;;22.97;21.43;;;;;;;13.18;77.16;99077.34;5024366;28;20226;-76
2021/04/29 10:13:26;;;;;;;23.33;21.73;;;;;;;13.45;76.79;99068.09;5030779;28;20201;-76
2021/04/29 10:15:52;;;;;;;23.23;21.53;;;;;;;13.75;78.03;99072.63;5023869;28;20244;-77
2021/04/29 10:18:19;;;;;;;20.57;19.17;;;;;;;13.64;76.49;99064.50;5042980;28;20738;-76
2021/04/29 10:20:48;;;;;;;21.27;19.87;;;;;;;13.51;77.32;99080.88;5030265;28;20300;-76
2021/04/29 10:23:17;;;;;;;20.77;19.17;;;;;;;13.30;77.11;99069.75;5025532;28;20201;-76
2021/04/29 10:25:49;;;;;;;19.43;18.13;;;;;;;13.20;74.64;99068.50;5031343;28;20205;-76
2021/04/29 10:28:15;;;;;;;20.07;18.73;;;;;;;13.23;74.38;99055.25;5025696;28;20688;-76
2021/04/29 10:30:40;;;;;;;23.27;21.63;;;;;;;13.72;78.37;99056.22;5027470;28;20699;-76
2021/04/29 10:33:15;;;;;;;20.37;18.97;;;;;;;13.90;75.05;99060.47;5026833;28;20208;-76
2021/04/29 10:35:56;;;;;;;19.70;18.30;;;;;;;13.55;74.70;99052.72;5019358;28;20625;-76
2021/04/29 10:38:29;;;;;;;21.50;19.80;;;;;;;13.94;75.53;99055.91;5031041;28;20265;-76
2021/04/29 10:40:56;;;;;;;19.37;18.07;;;;;;;14.19;73.56;99039.63;5030474;28;20229;-76
2021/04/29 10:43:31;;;;;;;19.80;18.40;;;;;;;14.25;71.06;99039.28;5034206;28;20605;-76
2021/04/29 10:46:00;;;;;;;22.02;20.58;;;;;;;14.08;70.77;99033.19;5031243;28;20441;-75
2021/04/29 10:48:27;;;;;;;19.63;18.23;;;;;;;13.88;67.82;99043.97;5036448;28;20298;-76
2021/04/29 10:50:53;;;;;;;21.93;20.20;;;;;;;13.70;69.53;99041.41;5023417;28;20313;-76
2021/04/29 10:53:30;;;;;;;19.60;18.20;;;;;;;13.36;69.15;99041.50;5022192;28;20240;-75
2021/04/29 10:56:01;;;;;;;20.97;19.47;;;;;;;13.34;70.00;99036.38;5021319;28;20218;-75
2021/04/29 10:58:27;;;;;;;21.50;20.00;;;;;;;13.43;70.74;99035.88;5049592;22;20314;-77
2021/04/29 11:00:56;;;;;;;20.80;19.20;;;;;;;13.75;70.16;99024.56;5023324;28;20243;-77
2021/04/29 11:03:30;;;;;;;18.57;17.07;;;;;;;14.01;65.17;99010.88;5017753;28;20204;-76
2021/04/29 11:06:04;;;;;;;18.17;16.97;;;;;;;14.41;67.84;99013.00;5019930;28;20366;-77
2021/04/29 11:08:34;;;;;;;17.80;16.60;;;;;;;14.49;64.15;99013.41;5020308;28;20222;-79
2021/04/29 11:11:00;;;;;;;16.53;15.23;;;;;;;14.53;63.16;99014.94;5014080;28;20196;-76
2021/04/29 11:13:27;;;;;;;15.83;14.73;;;;;;;14.38;64.20;99008.78;5015799;28;20205;-75
2021/04/29 11:15:57;;;;;;;14.87;13.73;;;;;;;14.31;62.69;99007.44;5016944;28;20205;-77
2021/04/29 11:18:22;;;;;;;15.73;14.40;;;;;;;14.38;65.20;99005.31;5015661;28;20219;-76